Walhalla, North Dakota
Current Conditions -  °F | °C
As of 4:15 PM on Friday 24 Oct 2014 (Local Time) from K2C8 Reporting Station
Clear Clear  
Wind Chill: 68°   Ceiling: Unl
Heat Index: 68°   Visibility: 10mi
Dew Point: 32°   Wind: 22mph
Humidity: 26%   Direction: 270°W
Pressure: 29.7"   Gusts: 31mph
Location:  48.92°N, 97.92°W
Report Text: K2C8 242115Z AUTO 27019G27KT 10SM CLR 20/00 A2970 RMK AO2
Loading
Personal Weather Stations






























Interactive Weather Map
Tropical Storm Tracking
New forecast layout! Learn more

10-Day Weather Forecast

Advertisements
Track Severe Weather on mobile